Wednesday, June 20, 2018, 3:54 AM EDT
Back to Local

KIPT, Williamsport-lycoming County

Location: Montoursville, PA, United States Lat: 41.25
Local Time: 3:54 AM EDT ( 7:54 GMT) Lon: -76.917
Time Zone: US/Eastern Elev: 528 ft

Show me the last for .
Show Coded

Time T Td Feel RH Dir Speed Gust Alt SLP Vis Weather Sky Remarks
2018-06-20 02:54 63 53 - 70 220° 3 - 29.91 29.89 10 CLR None
2018-06-20 01:54 63 54 - 72 - Calm - 29.92 29.90 10 CLR 6-hr Min Temp (2am): 63.0°F
6-hr Max Temp (2am): 77.0°F
2018-06-20 00:54 65 53 - 65 - Calm - 29.92 29.90 10 CLR 24-hr Min Temp (1am): 64.9°F
24-hr Max Temp (1am): 84.0°F
2018-06-19 23:54 68 51 - 54 320° 5 - 29.93 29.92 10 CLR None
2018-06-19 22:54 71 48 75 43 40° 6 - 29.92 29.91 10 CLR None
2018-06-19 21:54 71 53 76 53 110° 3 - 29.92 29.90 10 CLR None
2018-06-19 20:54 74 51 76 44 30° 8 - 29.90 29.89 10 CLR None
2018-06-19 19:54 77 47 - 34 10° 6 - 29.89 29.88 10 CLR 6-hr Min Temp (8pm): 77.0°F
6-hr Max Temp (8pm): 84.0°F
2018-06-19 18:54 81 48 - 31 350° 8 - 29.88 29.87 10 CLR None
2018-06-19 17:54 82 50 - 32 360° 9 - 29.87 29.86 10 CLR None
2018-06-19 16:54 84 52 - 33 330° 9 - 29.88 29.86 10 CLR None
2018-06-19 15:54 84 54 - 35 360° 8 17 29.88 29.86 10 CLR None
2018-06-19 14:54 83 54 - 37 350° 13 18 29.89 29.88 10 CLR None
2018-06-19 13:54 82 55 - 39 340° 9 - 29.89 29.88 10 CLR 6-hr Min Temp (2pm): 71.1°F
6-hr Max Temp (2pm): 82.0°F
2018-06-19 12:54 81 57 81 44 20° 12 - 29.90 29.88 10 CLR None
2018-06-19 11:54 79 58 80 48 320° 9 - 29.91 29.89 10 CLR None
2018-06-19 10:54 77 57 79 50 20° 13 - 29.91 29.90 10 CLR None
2018-06-19 09:54 75 59 78 57 320° 8 - 29.91 29.90 10 CLR None
2018-06-19 09:27 73 61 77 65 Variable 7 16 29.90 - 10 SCT024 SCT065 None
2018-06-19 09:06 71 62 76 73 Variable 7 - 29.91 - 10 BKN024 OVC065 None
2018-06-19 08:54 71 61 76 70 350° 9 21 29.90 29.89 10 FEW024 OVC065 None
2018-06-19 08:08 72 65 76 78 350° 7 - 29.88 - 10 FEW020 BKN030 OVC065 None
2018-06-19 07:54 72 65 76 78 350° 9 - 29.88 29.86 10 SCT020 OVC028 6-hr Precip Total (8am): 0.00"
24-hr Precip Total (8am): 0.30"
6-hr Min Temp (8am): 72.0°F
6-hr Max Temp (8am): 75.0°F
2018-06-19 07:39 73 67 77 81 340° 8 - 29.87 - 10 SCT021 BKN027 OVC047 None
2018-06-19 06:54 73 69 77 87 Variable 5 - 29.86 29.84 10 OVC042 1-hr Precip Total: Trace
2018-06-19 06:05 72 69 76 90 190° 6 - 29.84 - 10 SCT021 SCT032 OVC039 1-hr Precip Total: Trace
2018-06-19 05:54 73 69 77 87 - Calm - 29.84 29.83 9 -RA FEW007 BKN023 OVC034 1-hr Precip Total: Trace
2018-06-19 05:37 74 70 78 87 340° 12 - 29.83 - 10 -RA FEW008 BKN021 OVC034 1-hr Precip Total: Trace
2018-06-19 04:54 74 71 78 90 270° 9 - 29.82 29.80 10 SCT032 BKN048 BKN060 None

Support USWX by starting your Amazon purchase here.